sensor_id;sensor_type;location;lat;lon;timestamp;P1;durP1;ratioP1;P2;durP2;ratioP2
50681;SDS011;36779;52.168;20.878;2022-10-16T00:02:26;9.90;;;5.60;;
50681;SDS011;36779;52.168;20.878;2022-10-16T00:04:55;11.10;;;6.70;;
50681;SDS011;36779;52.168;20.878;2022-10-16T00:07:23;11.90;;;6.30;;
50681;SDS011;36779;52.168;20.878;2022-10-16T00:09:52;17.40;;;7.00;;
50681;SDS011;36779;52.168;20.878;2022-10-16T00:12:20;10.80;;;6.60;;
50681;SDS011;36779;52.168;20.878;2022-10-16T00:14:48;11.30;;;6.10;;
50681;SDS011;36779;52.168;20.878;2022-10-16T00:17:17;10.70;;;6.10;;
50681;SDS011;36779;52.168;20.878;2022-10-16T00:19:46;9.40;;;6.50;;
50681;SDS011;36779;52.168;20.878;2022-10-16T00:22:14;14.20;;;6.30;;
50681;SDS011;36779;52.168;20.878;2022-10-16T00:24:42;10.10;;;6.40;;
50681;SDS011;36779;52.168;20.878;2022-10-16T00:27:11;10.70;;;5.80;;
50681;SDS011;36779;52.168;20.878;2022-10-16T00:29:39;10.30;;;6.40;;
50681;SDS011;36779;52.168;20.878;2022-10-16T00:32:07;13.40;;;7.10;;
50681;SDS011;36779;52.168;20.878;2022-10-16T00:34:36;13.40;;;7.10;;
50681;SDS011;36779;52.168;20.878;2022-10-16T00:37:04;12.00;;;7.40;;
50681;SDS011;36779;52.168;20.878;2022-10-16T00:39:33;11.60;;;6.50;;
50681;SDS011;36779;52.168;20.878;2022-10-16T00:42:01;11.40;;;7.30;;
50681;SDS011;36779;52.168;20.878;2022-10-16T00:44:46;13.00;;;6.60;;
50681;SDS011;36779;52.168;20.878;2022-10-16T00:47:21;14.10;;;7.10;;
50681;SDS011;36779;52.168;20.878;2022-10-16T00:49:55;13.10;;;6.60;;
50681;SDS011;36779;52.168;20.878;2022-10-16T00:52:26;13.00;;;7.70;;
50681;SDS011;36779;52.168;20.878;2022-10-16T00:54:54;13.10;;;7.30;;
50681;SDS011;36779;52.168;20.878;2022-10-16T00:57:24;15.70;;;8.00;;
50681;SDS011;36779;52.168;20.878;2022-10-16T00:59:53;14.50;;;8.40;;
50681;SDS011;36779;52.168;20.878;2022-10-16T01:02:21;14.80;;;8.00;;
50681;SDS011;36779;52.168;20.878;2022-10-16T01:04:51;16.40;;;8.10;;
50681;SDS011;36779;52.168;20.878;2022-10-16T01:07:25;12.10;;;6.90;;
50681;SDS011;36779;52.168;20.878;2022-10-16T01:10:07;18.90;;;7.80;;
50681;SDS011;36779;52.168;20.878;2022-10-16T01:12:45;14.40;;;7.00;;
50681;SDS011;36779;52.168;20.878;2022-10-16T01:15:18;15.10;;;7.10;;
50681;SDS011;36779;52.168;20.878;2022-10-16T01:17:53;12.30;;;7.50;;
50681;SDS011;36779;52.168;20.878;2022-10-16T01:20:29;16.30;;;8.50;;
50681;SDS011;36779;52.168;20.878;2022-10-16T01:23:02;12.30;;;8.00;;
50681;SDS011;36779;52.168;20.878;2022-10-16T01:25:44;16.30;;;8.90;;
50681;SDS011;36779;52.168;20.878;2022-10-16T01:28:25;15.00;;;7.60;;
50681;SDS011;36779;52.168;20.878;2022-10-16T01:31:00;12.30;;;6.60;;
50681;SDS011;36779;52.168;20.878;2022-10-16T01:33:32;14.60;;;7.60;;
50681;SDS011;36779;52.168;20.878;2022-10-16T01:36:07;12.90;;;6.80;;
50681;SDS011;36779;52.168;20.878;2022-10-16T01:38:40;14.80;;;8.40;;
50681;SDS011;36779;52.168;20.878;2022-10-16T01:41:12;17.00;;;8.70;;
50681;SDS011;36779;52.168;20.878;2022-10-16T01:43:46;19.90;;;8.40;;
50681;SDS011;36779;52.168;20.878;2022-10-16T01:46:20;17.00;;;9.00;;
50681;SDS011;36779;52.168;20.878;2022-10-16T01:48:52;14.90;;;8.80;;
50681;SDS011;36779;52.168;20.878;2022-10-16T01:51:25;13.70;;;8.30;;
50681;SDS011;36779;52.168;20.878;2022-10-16T01:53:56;13.60;;;7.50;;
50681;SDS011;36779;52.168;20.878;2022-10-16T01:56:27;17.40;;;8.40;;
50681;SDS011;36779;52.168;20.878;2022-10-16T01:58:57;13.00;;;7.40;;
50681;SDS011;36779;52.168;20.878;2022-10-16T02:01:29;16.30;;;8.20;;
50681;SDS011;36779;52.168;20.878;2022-10-16T02:04:02;17.10;;;9.00;;
50681;SDS011;36779;52.168;20.878;2022-10-16T02:06:36;16.20;;;9.20;;
50681;SDS011;36779;52.168;20.878;2022-10-16T02:09:04;16.60;;;10.00;;
50681;SDS011;36779;52.168;20.878;2022-10-16T02:11:33;15.90;;;8.60;;
50681;SDS011;36779;52.168;20.878;2022-10-16T02:14:01;17.00;;;9.10;;
50681;SDS011;36779;52.168;20.878;2022-10-16T02:16:36;13.40;;;8.00;;
50681;SDS011;36779;52.168;20.878;2022-10-16T02:19:06;16.90;;;8.90;;
50681;SDS011;36779;52.168;20.878;2022-10-16T02:21:36;15.80;;;8.90;;
50681;SDS011;36779;52.168;20.878;2022-10-16T02:24:11;18.80;;;8.20;;
50681;SDS011;36779;52.168;20.878;2022-10-16T02:26:49;18.20;;;9.40;;
50681;SDS011;36779;52.168;20.878;2022-10-16T02:29:23;18.70;;;10.10;;
50681;SDS011;36779;52.168;20.878;2022-10-16T02:31:55;17.50;;;10.00;;
50681;SDS011;36779;52.168;20.878;2022-10-16T02:34:26;19.50;;;10.30;;
50681;SDS011;36779;52.168;20.878;2022-10-16T02:36:57;18.70;;;9.90;;
50681;SDS011;36779;52.168;20.878;2022-10-16T02:39:27;18.50;;;9.60;;
50681;SDS011;36779;52.168;20.878;2022-10-16T02:41:57;13.40;;;8.20;;
50681;SDS011;36779;52.168;20.878;2022-10-16T02:44:25;16.20;;;8.10;;
50681;SDS011;36779;52.168;20.878;2022-10-16T02:46:53;17.90;;;8.10;;
50681;SDS011;36779;52.168;20.878;2022-10-16T02:49:22;17.10;;;9.30;;
50681;SDS011;36779;52.168;20.878;2022-10-16T02:51:51;18.90;;;9.70;;
50681;SDS011;36779;52.168;20.878;2022-10-16T02:54:20;22.90;;;10.90;;
50681;SDS011;36779;52.168;20.878;2022-10-16T02:56:48;18.20;;;9.50;;
50681;SDS011;36779;52.168;20.878;2022-10-16T02:59:19;17.60;;;9.70;;
50681;SDS011;36779;52.168;20.878;2022-10-16T03:01:47;20.40;;;9.90;;
50681;SDS011;36779;52.168;20.878;2022-10-16T03:04:17;17.20;;;9.60;;
50681;SDS011;36779;52.168;20.878;2022-10-16T03:06:45;18.00;;;9.10;;
50681;SDS011;36779;52.168;20.878;2022-10-16T03:09:13;18.40;;;8.70;;
50681;SDS011;36779;52.168;20.878;2022-10-16T03:11:42;16.40;;;8.40;;
50681;SDS011;36779;52.168;20.878;2022-10-16T03:14:10;18.30;;;9.20;;
50681;SDS011;36779;52.168;20.878;2022-10-16T03:16:38;18.20;;;8.60;;
50681;SDS011;36779;52.168;20.878;2022-10-16T03:19:07;15.90;;;10.00;;
50681;SDS011;36779;52.168;20.878;2022-10-16T03:21:35;17.90;;;9.90;;
50681;SDS011;36779;52.168;20.878;2022-10-16T03:24:04;22.40;;;10.70;;
50681;SDS011;36779;52.168;20.878;2022-10-16T03:26:32;18.80;;;9.80;;
50681;SDS011;36779;52.168;20.878;2022-10-16T03:29:01;18.10;;;9.20;;
50681;SDS011;36779;52.168;20.878;2022-10-16T03:31:30;19.40;;;9.90;;
50681;SDS011;36779;52.168;20.878;2022-10-16T03:33:58;18.20;;;8.90;;
50681;SDS011;36779;52.168;20.878;2022-10-16T03:36:27;15.20;;;8.00;;
50681;SDS011;36779;52.168;20.878;2022-10-16T03:38:55;14.90;;;8.90;;
50681;SDS011;36779;52.168;20.878;2022-10-16T03:41:24;19.40;;;9.80;;
50681;SDS011;36779;52.168;20.878;2022-10-16T03:43:52;17.60;;;9.60;;
50681;SDS011;36779;52.168;20.878;2022-10-16T03:46:21;19.20;;;10.20;;
50681;SDS011;36779;52.168;20.878;2022-10-16T03:48:52;20.10;;;10.60;;
50681;SDS011;36779;52.168;20.878;2022-10-16T03:51:21;22.00;;;10.30;;
50681;SDS011;36779;52.168;20.878;2022-10-16T03:53:51;18.00;;;9.80;;
50681;SDS011;36779;52.168;20.878;2022-10-16T03:56:20;16.00;;;8.60;;
50681;SDS011;36779;52.168;20.878;2022-10-16T03:58:48;17.40;;;8.30;;
50681;SDS011;36779;52.168;20.878;2022-10-16T04:01:20;18.00;;;9.40;;
50681;SDS011;36779;52.168;20.878;2022-10-16T04:03:50;18.80;;;9.30;;
50681;SDS011;36779;52.168;20.878;2022-10-16T04:06:20;20.70;;;10.20;;
50681;SDS011;36779;52.168;20.878;2022-10-16T04:08:49;22.80;;;10.40;;
50681;SDS011;36779;52.168;20.878;2022-10-16T04:11:20;18.50;;;9.40;;
50681;SDS011;36779;52.168;20.878;2022-10-16T04:13:48;17.90;;;10.00;;
50681;SDS011;36779;52.168;20.878;2022-10-16T04:16:19;16.40;;;9.30;;
50681;SDS011;36779;52.168;20.878;2022-10-16T04:18:49;20.70;;;8.80;;
50681;SDS011;36779;52.168;20.878;2022-10-16T04:21:18;18.00;;;9.70;;
50681;SDS011;36779;52.168;20.878;2022-10-16T04:23:47;19.80;;;10.00;;
50681;SDS011;36779;52.168;20.878;2022-10-16T04:26:16;15.10;;;9.00;;
50681;SDS011;36779;52.168;20.878;2022-10-16T04:28:45;20.40;;;10.70;;
50681;SDS011;36779;52.168;20.878;2022-10-16T04:31:13;17.90;;;10.40;;
50681;SDS011;36779;52.168;20.878;2022-10-16T04:33:42;19.40;;;10.30;;
50681;SDS011;36779;52.168;20.878;2022-10-16T04:36:11;22.40;;;10.40;;
50681;SDS011;36779;52.168;20.878;2022-10-16T04:38:40;21.20;;;9.70;;
50681;SDS011;36779;52.168;20.878;2022-10-16T04:41:08;20.50;;;9.30;;
50681;SDS011;36779;52.168;20.878;2022-10-16T04:43:36;18.40;;;10.70;;
50681;SDS011;36779;52.168;20.878;2022-10-16T04:46:05;18.30;;;9.90;;
50681;SDS011;36779;52.168;20.878;2022-10-16T04:48:33;17.90;;;9.50;;
50681;SDS011;36779;52.168;20.878;2022-10-16T04:51:02;19.10;;;9.90;;
50681;SDS011;36779;52.168;20.878;2022-10-16T04:53:31;22.00;;;10.90;;
50681;SDS011;36779;52.168;20.878;2022-10-16T04:56:01;20.90;;;10.50;;
50681;SDS011;36779;52.168;20.878;2022-10-16T04:58:30;19.60;;;11.00;;
50681;SDS011;36779;52.168;20.878;2022-10-16T05:00:59;18.90;;;10.20;;
50681;SDS011;36779;52.168;20.878;2022-10-16T05:03:27;24.50;;;10.80;;
50681;SDS011;36779;52.168;20.878;2022-10-16T05:06:01;22.30;;;10.70;;
50681;SDS011;36779;52.168;20.878;2022-10-16T05:08:32;19.90;;;10.10;;
50681;SDS011;36779;52.168;20.878;2022-10-16T05:11:01;22.00;;;9.50;;
50681;SDS011;36779;52.168;20.878;2022-10-16T05:13:30;20.50;;;10.30;;
50681;SDS011;36779;52.168;20.878;2022-10-16T05:15:58;21.50;;;10.30;;
50681;SDS011;36779;52.168;20.878;2022-10-16T05:18:27;22.00;;;10.60;;
50681;SDS011;36779;52.168;20.878;2022-10-16T05:20:55;19.50;;;10.20;;
50681;SDS011;36779;52.168;20.878;2022-10-16T05:23:24;21.40;;;11.80;;
50681;SDS011;36779;52.168;20.878;2022-10-16T05:25:54;23.00;;;10.90;;
50681;SDS011;36779;52.168;20.878;2022-10-16T05:28:25;20.80;;;10.40;;
50681;SDS011;36779;52.168;20.878;2022-10-16T05:30:55;20.80;;;9.80;;
50681;SDS011;36779;52.168;20.878;2022-10-16T05:33:24;19.20;;;9.60;;
50681;SDS011;36779;52.168;20.878;2022-10-16T05:35:53;21.80;;;10.20;;
50681;SDS011;36779;52.168;20.878;2022-10-16T05:38:21;21.30;;;9.30;;
50681;SDS011;36779;52.168;20.878;2022-10-16T05:40:53;24.40;;;10.90;;
50681;SDS011;36779;52.168;20.878;2022-10-16T05:43:23;21.90;;;10.70;;
50681;SDS011;36779;52.168;20.878;2022-10-16T05:45:55;18.90;;;10.70;;
50681;SDS011;36779;52.168;20.878;2022-10-16T05:48:25;21.10;;;10.80;;
50681;SDS011;36779;52.168;20.878;2022-10-16T05:50:56;18.80;;;10.50;;
50681;SDS011;36779;52.168;20.878;2022-10-16T05:53:27;21.40;;;10.10;;
50681;SDS011;36779;52.168;20.878;2022-10-16T05:55:57;20.70;;;9.90;;
50681;SDS011;36779;52.168;20.878;2022-10-16T05:58:28;18.50;;;9.60;;
50681;SDS011;36779;52.168;20.878;2022-10-16T06:01:01;19.40;;;10.10;;
50681;SDS011;36779;52.168;20.878;2022-10-16T06:03:32;22.70;;;10.60;;
50681;SDS011;36779;52.168;20.878;2022-10-16T06:06:06;22.60;;;11.60;;
50681;SDS011;36779;52.168;20.878;2022-10-16T06:08:39;20.20;;;11.10;;
50681;SDS011;36779;52.168;20.878;2022-10-16T06:11:09;17.10;;;9.60;;
50681;SDS011;36779;52.168;20.878;2022-10-16T06:13:39;18.70;;;9.70;;
50681;SDS011;36779;52.168;20.878;2022-10-16T06:16:10;17.20;;;9.00;;
50681;SDS011;36779;52.168;20.878;2022-10-16T06:18:39;16.40;;;10.10;;
50681;SDS011;36779;52.168;20.878;2022-10-16T06:21:08;19.20;;;9.90;;
50681;SDS011;36779;52.168;20.878;2022-10-16T06:23:37;18.30;;;9.70;;
50681;SDS011;36779;52.168;20.878;2022-10-16T06:26:06;18.50;;;10.00;;
50681;SDS011;36779;52.168;20.878;2022-10-16T06:28:36;22.80;;;10.30;;
50681;SDS011;36779;52.168;20.878;2022-10-16T06:31:06;17.80;;;10.70;;
50681;SDS011;36779;52.168;20.878;2022-10-16T06:33:36;16.20;;;10.10;;
50681;SDS011;36779;52.168;20.878;2022-10-16T06:36:05;19.80;;;10.20;;
50681;SDS011;36779;52.168;20.878;2022-10-16T06:38:36;22.40;;;10.50;;
50681;SDS011;36779;52.168;20.878;2022-10-16T06:41:06;18.80;;;9.70;;
50681;SDS011;36779;52.168;20.878;2022-10-16T06:43:36;21.30;;;10.80;;
50681;SDS011;36779;52.168;20.878;2022-10-16T06:46:05;16.10;;;9.60;;
50681;SDS011;36779;52.168;20.878;2022-10-16T06:48:37;24.40;;;10.70;;
50681;SDS011;36779;52.168;20.878;2022-10-16T06:51:06;20.40;;;11.10;;
50681;SDS011;36779;52.168;20.878;2022-10-16T06:53:37;19.60;;;9.90;;
50681;SDS011;36779;52.168;20.878;2022-10-16T06:56:28;14.90;;;8.80;;
50681;SDS011;36779;52.168;20.878;2022-10-16T06:59:00;18.40;;;8.80;;
50681;SDS011;36779;52.168;20.878;2022-10-16T07:01:29;19.90;;;10.50;;
50681;SDS011;36779;52.168;20.878;2022-10-16T07:03:58;20.00;;;10.50;;
50681;SDS011;36779;52.168;20.878;2022-10-16T07:06:30;19.60;;;10.80;;
50681;SDS011;36779;52.168;20.878;2022-10-16T07:09:02;18.00;;;10.10;;
50681;SDS011;36779;52.168;20.878;2022-10-16T07:11:34;18.70;;;11.30;;
50681;SDS011;36779;52.168;20.878;2022-10-16T07:14:03;19.70;;;10.20;;
50681;SDS011;36779;52.168;20.878;2022-10-16T07:16:33;17.10;;;9.40;;
50681;SDS011;36779;52.168;20.878;2022-10-16T07:19:03;18.20;;;10.30;;
50681;SDS011;36779;52.168;20.878;2022-10-16T07:21:32;18.50;;;9.20;;
50681;SDS011;36779;52.168;20.878;2022-10-16T07:24:04;15.10;;;9.00;;
50681;SDS011;36779;52.168;20.878;2022-10-16T07:26:35;17.20;;;8.90;;
50681;SDS011;36779;52.168;20.878;2022-10-16T07:29:07;17.10;;;9.40;;
50681;SDS011;36779;52.168;20.878;2022-10-16T07:31:41;20.80;;;10.70;;
50681;SDS011;36779;52.168;20.878;2022-10-16T07:34:10;17.40;;;11.20;;
50681;SDS011;36779;52.168;20.878;2022-10-16T07:36:40;18.90;;;10.40;;
50681;SDS011;36779;52.168;20.878;2022-10-16T07:39:14;17.60;;;10.20;;
50681;SDS011;36779;52.168;20.878;2022-10-16T07:41:42;16.20;;;11.10;;
50681;SDS011;36779;52.168;20.878;2022-10-16T07:44:11;20.20;;;13.20;;
50681;SDS011;36779;52.168;20.878;2022-10-16T07:46:39;16.70;;;11.20;;
50681;SDS011;36779;52.168;20.878;2022-10-16T07:49:08;15.60;;;12.00;;
50681;SDS011;36779;52.168;20.878;2022-10-16T07:51:37;15.70;;;12.60;;
50681;SDS011;36779;52.168;20.878;2022-10-16T07:54:07;15.10;;;12.00;;
50681;SDS011;36779;52.168;20.878;2022-10-16T07:56:36;17.30;;;11.00;;
50681;SDS011;36779;52.168;20.878;2022-10-16T07:59:10;14.50;;;11.60;;
50681;SDS011;36779;52.168;20.878;2022-10-16T08:01:38;15.90;;;11.90;;
50681;SDS011;36779;52.168;20.878;2022-10-16T08:04:09;14.00;;;11.50;;
50681;SDS011;36779;52.168;20.878;2022-10-16T08:06:38;13.80;;;11.10;;
50681;SDS011;36779;52.168;20.878;2022-10-16T08:09:07;13.30;;;11.10;;
50681;SDS011;36779;52.168;20.878;2022-10-16T08:11:36;15.00;;;11.50;;
50681;SDS011;36779;52.168;20.878;2022-10-16T08:14:04;17.10;;;12.30;;
50681;SDS011;36779;52.168;20.878;2022-10-16T08:16:33;13.90;;;10.90;;
50681;SDS011;36779;52.168;20.878;2022-10-16T08:19:04;14.20;;;10.50;;
50681;SDS011;36779;52.168;20.878;2022-10-16T08:21:32;14.40;;;10.20;;
50681;SDS011;36779;52.168;20.878;2022-10-16T08:24:01;14.50;;;8.80;;
50681;SDS011;36779;52.168;20.878;2022-10-16T08:26:29;15.40;;;10.80;;
50681;SDS011;36779;52.168;20.878;2022-10-16T08:28:57;13.10;;;10.00;;
50681;SDS011;36779;52.168;20.878;2022-10-16T08:31:26;14.60;;;11.40;;
50681;SDS011;36779;52.168;20.878;2022-10-16T08:33:55;19.30;;;10.90;;
50681;SDS011;36779;52.168;20.878;2022-10-16T08:36:23;12.70;;;10.60;;
50681;SDS011;36779;52.168;20.878;2022-10-16T08:38:51;12.30;;;9.80;;
50681;SDS011;36779;52.168;20.878;2022-10-16T08:41:26;15.10;;;11.00;;
50681;SDS011;36779;52.168;20.878;2022-10-16T08:44:21;14.10;;;10.30;;
50681;SDS011;36779;52.168;20.878;2022-10-16T08:47:01;14.40;;;11.20;;
50681;SDS011;36779;52.168;20.878;2022-10-16T08:49:35;14.70;;;10.80;;
50681;SDS011;36779;52.168;20.878;2022-10-16T08:52:06;13.50;;;11.00;;
50681;SDS011;36779;52.168;20.878;2022-10-16T08:54:41;15.50;;;11.20;;
50681;SDS011;36779;52.168;20.878;2022-10-16T08:57:13;15.70;;;10.50;;
50681;SDS011;36779;52.168;20.878;2022-10-16T08:59:52;15.40;;;11.30;;
50681;SDS011;36779;52.168;20.878;2022-10-16T09:02:28;14.30;;;11.00;;
50681;SDS011;36779;52.168;20.878;2022-10-16T09:05:03;15.00;;;10.30;;
50681;SDS011;36779;52.168;20.878;2022-10-16T09:07:53;16.70;;;9.70;;
50681;SDS011;36779;52.168;20.878;2022-10-16T09:10:35;13.20;;;10.20;;
50681;SDS011;36779;52.168;20.878;2022-10-16T09:13:16;14.20;;;9.90;;
50681;SDS011;36779;52.168;20.878;2022-10-16T09:15:51;13.50;;;10.70;;
50681;SDS011;36779;52.168;20.878;2022-10-16T09:18:26;12.80;;;10.30;;
50681;SDS011;36779;52.168;20.878;2022-10-16T09:21:04;13.50;;;10.40;;
50681;SDS011;36779;52.168;20.878;2022-10-16T09:23:41;15.00;;;9.80;;
50681;SDS011;36779;52.168;20.878;2022-10-16T09:26:11;10.90;;;9.70;;
50681;SDS011;36779;52.168;20.878;2022-10-16T09:28:42;12.90;;;10.00;;
50681;SDS011;36779;52.168;20.878;2022-10-16T09:31:14;10.90;;;9.40;;
50681;SDS011;36779;52.168;20.878;2022-10-16T09:33:47;12.00;;;10.20;;
50681;SDS011;36779;52.168;20.878;2022-10-16T09:36:18;11.40;;;9.50;;
50681;SDS011;36779;52.168;20.878;2022-10-16T09:38:49;11.70;;;9.50;;
50681;SDS011;36779;52.168;20.878;2022-10-16T09:41:18;12.90;;;10.10;;
50681;SDS011;36779;52.168;20.878;2022-10-16T09:43:49;16.00;;;10.60;;
50681;SDS011;36779;52.168;20.878;2022-10-16T09:46:25;11.10;;;10.00;;
50681;SDS011;36779;52.168;20.878;2022-10-16T09:48:57;12.30;;;10.20;;
50681;SDS011;36779;52.168;20.878;2022-10-16T09:51:28;15.40;;;9.90;;
50681;SDS011;36779;52.168;20.878;2022-10-16T09:53:59;13.30;;;9.90;;
50681;SDS011;36779;52.168;20.878;2022-10-16T09:56:28;13.80;;;10.90;;
50681;SDS011;36779;52.168;20.878;2022-10-16T09:59:01;13.90;;;10.80;;
50681;SDS011;36779;52.168;20.878;2022-10-16T10:01:38;11.80;;;9.50;;
50681;SDS011;36779;52.168;20.878;2022-10-16T10:04:08;13.60;;;10.00;;
50681;SDS011;36779;52.168;20.878;2022-10-16T10:06:40;13.60;;;10.40;;
50681;SDS011;36779;52.168;20.878;2022-10-16T10:09:16;10.90;;;9.60;;
50681;SDS011;36779;52.168;20.878;2022-10-16T10:11:48;11.10;;;10.00;;
50681;SDS011;36779;52.168;20.878;2022-10-16T10:14:20;12.50;;;10.20;;
50681;SDS011;36779;52.168;20.878;2022-10-16T10:16:52;13.20;;;9.70;;
50681;SDS011;36779;52.168;20.878;2022-10-16T10:19:38;13.40;;;10.10;;
50681;SDS011;36779;52.168;20.878;2022-10-16T10:22:17;12.00;;;9.70;;
50681;SDS011;36779;52.168;20.878;2022-10-16T10:27:47;11.60;;;10.00;;
50681;SDS011;36779;52.168;20.878;2022-10-16T10:30:29;14.10;;;9.60;;
50681;SDS011;36779;52.168;20.878;2022-10-16T10:33:09;12.30;;;9.80;;
50681;SDS011;36779;52.168;20.878;2022-10-16T10:35:45;12.80;;;10.20;;
50681;SDS011;36779;52.168;20.878;2022-10-16T10:38:29;13.40;;;10.30;;
50681;SDS011;36779;52.168;20.878;2022-10-16T10:41:06;13.50;;;10.70;;
50681;SDS011;36779;52.168;20.878;2022-10-16T10:43:58;11.00;;;9.70;;
50681;SDS011;36779;52.168;20.878;2022-10-16T10:46:35;14.50;;;10.20;;
50681;SDS011;36779;52.168;20.878;2022-10-16T10:49:16;10.80;;;9.40;;
50681;SDS011;36779;52.168;20.878;2022-10-16T10:52:01;16.40;;;9.80;;
50681;SDS011;36779;52.168;20.878;2022-10-16T10:54:39;11.70;;;9.40;;
50681;SDS011;36779;52.168;20.878;2022-10-16T10:57:19;11.90;;;10.40;;
50681;SDS011;36779;52.168;20.878;2022-10-16T10:59:59;15.30;;;10.40;;
50681;SDS011;36779;52.168;20.878;2022-10-16T11:02:37;12.50;;;10.80;;
50681;SDS011;36779;52.168;20.878;2022-10-16T11:05:30;11.70;;;10.40;;
50681;SDS011;36779;52.168;20.878;2022-10-16T11:08:08;11.70;;;10.00;;
50681;SDS011;36779;52.168;20.878;2022-10-16T11:10:48;11.30;;;9.60;;
50681;SDS011;36779;52.168;20.878;2022-10-16T11:13:25;13.60;;;10.00;;
50681;SDS011;36779;52.168;20.878;2022-10-16T11:16:00;13.40;;;10.00;;
50681;SDS011;36779;52.168;20.878;2022-10-16T11:18:42;13.10;;;9.90;;
50681;SDS011;36779;52.168;20.878;2022-10-16T11:21:17;13.70;;;10.40;;
50681;SDS011;36779;52.168;20.878;2022-10-16T11:23:53;13.40;;;9.30;;
50681;SDS011;36779;52.168;20.878;2022-10-16T11:26:28;14.70;;;9.50;;
50681;SDS011;36779;52.168;20.878;2022-10-16T11:29:02;13.40;;;9.80;;
50681;SDS011;36779;52.168;20.878;2022-10-16T11:31:38;10.70;;;9.20;;
50681;SDS011;36779;52.168;20.878;2022-10-16T11:34:12;14.60;;;9.60;;
50681;SDS011;36779;52.168;20.878;2022-10-16T11:36:46;12.10;;;9.50;;
50681;SDS011;36779;52.168;20.878;2022-10-16T11:39:21;10.60;;;9.40;;
50681;SDS011;36779;52.168;20.878;2022-10-16T11:41:59;9.80;;;8.70;;
50681;SDS011;36779;52.168;20.878;2022-10-16T11:44:34;11.90;;;9.10;;
50681;SDS011;36779;52.168;20.878;2022-10-16T11:47:12;11.10;;;8.80;;
50681;SDS011;36779;52.168;20.878;2022-10-16T11:50:13;13.20;;;9.50;;
50681;SDS011;36779;52.168;20.878;2022-10-16T11:52:51;11.30;;;9.10;;
50681;SDS011;36779;52.168;20.878;2022-10-16T11:55:30;13.80;;;9.70;;
50681;SDS011;36779;52.168;20.878;2022-10-16T11:58:03;11.30;;;9.10;;
50681;SDS011;36779;52.168;20.878;2022-10-16T12:00:37;12.30;;;8.90;;
50681;SDS011;36779;52.168;20.878;2022-10-16T12:03:11;9.60;;;8.30;;
50681;SDS011;36779;52.168;20.878;2022-10-16T12:05:52;10.00;;;8.90;;
50681;SDS011;36779;52.168;20.878;2022-10-16T12:08:35;10.40;;;8.70;;
50681;SDS011;36779;52.168;20.878;2022-10-16T12:11:08;10.00;;;8.40;;
50681;SDS011;36779;52.168;20.878;2022-10-16T12:13:49;12.10;;;8.90;;
50681;SDS011;36779;52.168;20.878;2022-10-16T12:16:20;10.60;;;8.40;;
50681;SDS011;36779;52.168;20.878;2022-10-16T12:19:07;12.10;;;9.30;;
50681;SDS011;36779;52.168;20.878;2022-10-16T12:21:39;11.10;;;8.20;;
50681;SDS011;36779;52.168;20.878;2022-10-16T12:24:18;9.50;;;8.50;;
50681;SDS011;36779;52.168;20.878;2022-10-16T12:26:55;11.80;;;9.00;;
50681;SDS011;36779;52.168;20.878;2022-10-16T12:29:28;12.30;;;9.60;;
50681;SDS011;36779;52.168;20.878;2022-10-16T12:32:01;11.70;;;9.90;;
50681;SDS011;36779;52.168;20.878;2022-10-16T12:34:34;13.10;;;9.20;;
50681;SDS011;36779;52.168;20.878;2022-10-16T12:37:13;11.50;;;10.10;;
50681;SDS011;36779;52.168;20.878;2022-10-16T12:39:48;10.20;;;8.50;;
50681;SDS011;36779;52.168;20.878;2022-10-16T12:42:23;12.50;;;8.90;;
50681;SDS011;36779;52.168;20.878;2022-10-16T12:45:01;11.40;;;9.20;;
50681;SDS011;36779;52.168;20.878;2022-10-16T12:47:48;11.20;;;8.70;;
50681;SDS011;36779;52.168;20.878;2022-10-16T12:50:25;10.60;;;8.70;;
50681;SDS011;36779;52.168;20.878;2022-10-16T12:52:57;11.20;;;8.00;;
50681;SDS011;36779;52.168;20.878;2022-10-16T12:55:30;14.30;;;8.00;;
50681;SDS011;36779;52.168;20.878;2022-10-16T12:58:31;13.40;;;9.30;;
50681;SDS011;36779;52.168;20.878;2022-10-16T13:01:12;11.80;;;9.40;;
50681;SDS011;36779;52.168;20.878;2022-10-16T13:04:20;10.30;;;8.30;;
50681;SDS011;36779;52.168;20.878;2022-10-16T13:06:57;9.70;;;8.20;;
50681;SDS011;36779;52.168;20.878;2022-10-16T13:09:40;11.10;;;8.20;;
50681;SDS011;36779;52.168;20.878;2022-10-16T13:12:23;12.40;;;9.10;;
50681;SDS011;36779;52.168;20.878;2022-10-16T13:15:08;12.30;;;8.60;;
50681;SDS011;36779;52.168;20.878;2022-10-16T13:17:50;11.20;;;8.20;;
50681;SDS011;36779;52.168;20.878;2022-10-16T13:20:27;10.90;;;7.00;;
50681;SDS011;36779;52.168;20.878;2022-10-16T13:23:08;10.60;;;7.60;;
50681;SDS011;36779;52.168;20.878;2022-10-16T13:25:51;11.00;;;8.10;;
50681;SDS011;36779;52.168;20.878;2022-10-16T13:28:32;10.40;;;8.00;;
50681;SDS011;36779;52.168;20.878;2022-10-16T13:31:03;15.20;;;7.20;;
50681;SDS011;36779;52.168;20.878;2022-10-16T13:33:42;11.20;;;8.90;;
50681;SDS011;36779;52.168;20.878;2022-10-16T13:36:19;9.40;;;8.30;;
50681;SDS011;36779;52.168;20.878;2022-10-16T13:38:50;10.40;;;6.20;;
50681;SDS011;36779;52.168;20.878;2022-10-16T13:41:28;11.50;;;7.60;;
50681;SDS011;36779;52.168;20.878;2022-10-16T13:43:57;10.00;;;8.20;;
50681;SDS011;36779;52.168;20.878;2022-10-16T13:46:26;9.70;;;7.80;;
50681;SDS011;36779;52.168;20.878;2022-10-16T13:49:04;10.20;;;7.40;;
50681;SDS011;36779;52.168;20.878;2022-10-16T13:51:33;10.90;;;7.90;;
50681;SDS011;36779;52.168;20.878;2022-10-16T13:54:02;9.00;;;7.10;;
50681;SDS011;36779;52.168;20.878;2022-10-16T13:56:31;12.80;;;7.40;;
50681;SDS011;36779;52.168;20.878;2022-10-16T13:59:01;11.70;;;7.60;;
50681;SDS011;36779;52.168;20.878;2022-10-16T14:01:31;12.10;;;8.10;;
50681;SDS011;36779;52.168;20.878;2022-10-16T14:04:09;11.10;;;8.60;;
50681;SDS011;36779;52.168;20.878;2022-10-16T14:06:41;11.40;;;7.80;;
50681;SDS011;36779;52.168;20.878;2022-10-16T14:09:14;10.50;;;7.90;;
50681;SDS011;36779;52.168;20.878;2022-10-16T14:11:49;11.60;;;8.00;;
50681;SDS011;36779;52.168;20.878;2022-10-16T14:14:20;14.40;;;8.50;;
50681;SDS011;36779;52.168;20.878;2022-10-16T14:16:49;12.00;;;8.30;;
50681;SDS011;36779;52.168;20.878;2022-10-16T14:19:19;11.80;;;7.80;;
50681;SDS011;36779;52.168;20.878;2022-10-16T14:21:50;10.60;;;7.70;;
50681;SDS011;36779;52.168;20.878;2022-10-16T14:24:26;10.70;;;8.10;;
50681;SDS011;36779;52.168;20.878;2022-10-16T14:27:01;9.70;;;6.80;;
50681;SDS011;36779;52.168;20.878;2022-10-16T14:29:44;10.40;;;7.20;;
50681;SDS011;36779;52.168;20.878;2022-10-16T14:32:21;9.90;;;8.60;;
50681;SDS011;36779;52.168;20.878;2022-10-16T14:34:54;11.40;;;8.30;;
50681;SDS011;36779;52.168;20.878;2022-10-16T14:37:26;11.80;;;7.70;;
50681;SDS011;36779;52.168;20.878;2022-10-16T14:39:57;11.70;;;8.50;;
50681;SDS011;36779;52.168;20.878;2022-10-16T14:42:27;12.70;;;8.50;;
50681;SDS011;36779;52.168;20.878;2022-10-16T14:44:57;10.40;;;7.70;;
50681;SDS011;36779;52.168;20.878;2022-10-16T14:47:26;11.90;;;7.60;;
50681;SDS011;36779;52.168;20.878;2022-10-16T14:49:55;15.10;;;8.90;;
50681;SDS011;36779;52.168;20.878;2022-10-16T14:52:26;13.10;;;8.30;;
50681;SDS011;36779;52.168;20.878;2022-10-16T14:54:55;12.30;;;8.10;;